Union Springs, Alabama
Current Conditions -  °F | °C
As of 12:53 PM on Friday 31 Oct 2014 (Local Time) from KTOI Reporting Station
Clear Clear  
Wind Chill: 71°   Ceiling: Unl
Heat Index: 71°   Visibility: 10mi
Dew Point: 40°   Wind: 5mph
Humidity: 32%   Direction: NA
Pressure: 29.92"   Gusts: NA
Location:  32.14°N, 85.71°W
Report Text: KTOI 311753Z AUTO VRB04KT 10SM CLR 22/04 A2992 RMK AO2 SLP131 T02170044 10217 20033 58024
Loading
Personal Weather Stations






























Interactive Weather Map
Tropical Storm Tracking
New forecast layout! Learn more

10-Day Weather Forecast

Advertisements
Track Severe Weather on mobile